createdAt,value
2022-08-07T00:01:43.079Z,4.80
2022-08-07T00:03:51.661Z,4.80
2022-08-07T00:06:18.333Z,4.65
2022-08-07T00:08:55.878Z,3.80
2022-08-07T00:11:33.151Z,4.20
2022-08-07T00:13:59.961Z,4.18
2022-08-07T00:16:28.343Z,4.43
2022-08-07T00:18:54.989Z,3.70
2022-08-07T00:21:55.513Z,4.32
2022-08-07T00:24:09.125Z,4.28
2022-08-07T00:26:49.553Z,5.28
2022-08-07T00:29:31.250Z,6.83
2022-08-07T00:32:01.931Z,6.15
2022-08-07T00:34:29.087Z,6.35
2022-08-07T00:36:56.628Z,4.90
2022-08-07T00:39:23.248Z,5.65
2022-08-07T00:42:04.826Z,4.97
2022-08-07T00:44:33.861Z,5.32
2022-08-07T00:47:02.417Z,5.72
2022-08-07T00:50:19.916Z,5.57
2022-08-07T00:52:17.656Z,5.90
2022-08-07T00:54:46.878Z,5.90
2022-08-07T00:57:22.418Z,6.25
2022-08-07T00:59:49.297Z,6.55
2022-08-07T01:02:28.074Z,6.38
2022-08-07T01:04:58.263Z,6.00
2022-08-07T01:07:27.851Z,6.03
2022-08-07T01:10:06.851Z,6.82
2022-08-07T01:12:40.122Z,6.38
2022-08-07T01:15:20.468Z,6.20
2022-08-07T01:17:47.211Z,7.47
2022-08-07T01:20:16.568Z,6.43
2022-08-07T01:22:46.857Z,6.57
2022-08-07T01:25:53.612Z,6.97
2022-08-07T01:28:12.322Z,7.57
2022-08-07T01:30:42.066Z,6.93
2022-08-07T01:33:08.866Z,7.83
2022-08-07T01:35:53.093Z,7.38
2022-08-07T01:38:25.482Z,6.07
2022-08-07T01:40:58.930Z,6.10
2022-08-07T01:43:27.335Z,5.80
2022-08-07T01:46:05.650Z,6.03
2022-08-07T01:48:35.070Z,5.30
2022-08-07T01:51:24.157Z,5.68
2022-08-07T01:54:09.622Z,5.13
2022-08-07T01:56:56.536Z,4.35
2022-08-07T01:59:30.890Z,5.17
2022-08-07T02:02:11.408Z,5.15
2022-08-07T02:05:06.072Z,6.85
2022-08-07T02:07:50.641Z,5.85
2022-08-07T02:10:22.858Z,6.40
2022-08-07T02:12:51.224Z,5.93
2022-08-07T02:15:27.992Z,6.07
2022-08-07T02:17:56.531Z,4.95
2022-08-07T02:20:24.545Z,4.25
2022-08-07T02:22:59.722Z,4.13
2022-08-07T02:26:10.721Z,4.50
2022-08-07T02:28:24.575Z,4.72
2022-08-07T02:30:53.875Z,5.70
2022-08-07T02:33:22.147Z,5.80
2022-08-07T02:36:29.815Z,7.45
2022-08-07T02:38:39.390Z,6.27
2022-08-07T02:41:21.890Z,5.35
2022-08-07T02:43:50.159Z,5.70
2022-08-07T02:46:20.064Z,5.97
2022-08-07T02:48:55.075Z,5.95
2022-08-07T02:51:41.825Z,6.30
2022-08-07T02:54:11.285Z,4.63
2022-08-07T02:56:41.457Z,5.03
2022-08-07T02:59:11.184Z,5.00
2022-08-07T03:01:40.010Z,5.53
2022-08-07T03:04:12.941Z,4.57
2022-08-07T03:06:45.934Z,4.05
2022-08-07T03:09:44.644Z,4.10
2022-08-07T03:12:04.229Z,4.78
2022-08-07T03:14:32.493Z,5.40
2022-08-07T03:16:59.499Z,5.73
2022-08-07T03:19:28.901Z,5.93
2022-08-07T03:21:56.790Z,6.65
2022-08-07T03:24:27.188Z,6.78
2022-08-07T03:26:59.060Z,5.47
2022-08-07T03:29:29.671Z,5.63
2022-08-07T03:31:57.738Z,5.07
2022-08-07T03:34:27.855Z,6.20
2022-08-07T03:36:57.314Z,5.85
2022-08-07T03:40:00.089Z,5.80
2022-08-07T03:42:13.244Z,5.27
2022-08-07T03:44:40.298Z,5.50
2022-08-07T03:47:13.044Z,5.65
2022-08-07T03:49:42.541Z,5.47
2022-08-07T03:52:26.396Z,5.43
2022-08-07T03:54:57.386Z,5.97
2022-08-07T03:58:33.924Z,4.95
2022-08-07T04:00:20.941Z,5.15
2022-08-07T04:02:49.495Z,5.82
2022-08-07T04:05:19.326Z,5.55
2022-08-07T04:07:51.676Z,5.53
2022-08-07T04:10:19.850Z,5.88
2022-08-07T04:12:48.818Z,6.10
2022-08-07T04:15:17.633Z,6.15
2022-08-07T04:18:56.445Z,6.90
2022-08-07T04:20:32.307Z,7.37
2022-08-07T04:23:06.436Z,7.38
2022-08-07T04:25:38.982Z,7.53
2022-08-07T04:28:08.066Z,8.73
2022-08-07T04:30:43.445Z,6.00
2022-08-07T04:33:24.327Z,5.07
2022-08-07T04:35:53.963Z,4.50
2022-08-07T04:38:21.028Z,4.18
2022-08-07T04:40:52.592Z,4.82
2022-08-07T04:44:14.436Z,5.50
2022-08-07T04:46:29.626Z,4.60
2022-08-07T04:49:17.769Z,5.18
2022-08-07T04:52:03.670Z,4.85
2022-08-07T04:54:39.037Z,5.45
2022-08-07T04:58:15.844Z,4.53
2022-08-07T05:00:24.006Z,4.50
2022-08-07T05:03:17.233Z,5.38
2022-08-07T05:06:16.470Z,5.60
2022-08-07T05:09:01.230Z,6.03
2022-08-07T05:11:57.495Z,6.70
2022-08-07T05:14:55.035Z,7.07
2022-08-07T05:17:50.861Z,7.05
2022-08-07T05:20:14.009Z,8.20
2022-08-07T05:22:45.540Z,6.53
2022-08-07T05:25:25.901Z,6.18
2022-08-07T05:28:20.571Z,6.70
2022-08-07T05:30:49.843Z,6.78
2022-08-07T05:33:20.689Z,7.75
2022-08-07T05:35:49.832Z,9.07
2022-08-07T05:39:01.294Z,9.52
2022-08-07T05:41:12.349Z,11.10
2022-08-07T05:44:07.804Z,11.23
2022-08-07T05:46:31.051Z,10.32
2022-08-07T05:48:59.497Z,13.48
2022-08-07T05:51:31.810Z,11.80
2022-08-07T05:54:09.295Z,11.73
2022-08-07T05:56:55.406Z,12.90
2022-08-07T05:59:24.991Z,13.52
2022-08-07T06:01:54.657Z,14.15
2022-08-07T06:04:29.937Z,12.85
2022-08-07T06:07:03.434Z,11.60
2022-08-07T06:09:44.847Z,12.43
2022-08-07T06:12:17.875Z,13.65
2022-08-07T06:14:49.616Z,12.32
2022-08-07T06:17:19.294Z,11.25
2022-08-07T06:20:03.451Z,12.13
2022-08-07T06:22:38.727Z,10.25
2022-08-07T06:25:10.004Z,11.40
2022-08-07T06:27:59.834Z,10.13
2022-08-07T06:30:36.161Z,9.00
2022-08-07T06:33:16.269Z,8.97
2022-08-07T06:35:47.490Z,7.82
2022-08-07T06:38:19.864Z,7.78
2022-08-07T06:40:51.276Z,7.97
2022-08-07T06:43:23.742Z,6.97
2022-08-07T06:45:50.957Z,6.57
2022-08-07T06:48:25.218Z,6.10
2022-08-07T06:50:54.833Z,5.15
2022-08-07T06:55:28.451Z,4.60
2022-08-07T06:56:15.374Z,4.55
2022-08-07T07:00:13.971Z,2.70
2022-08-07T07:01:33.206Z,3.00
2022-08-07T07:04:23.748Z,3.28
2022-08-07T07:07:01.195Z,2.55
2022-08-07T07:09:31.370Z,3.20
2022-08-07T07:12:25.623Z,2.15
2022-08-07T07:15:24.010Z,2.45
2022-08-07T07:18:48.026Z,2.50
2022-08-07T07:21:13.772Z,2.10
2022-08-07T07:24:08.642Z,2.00
2022-08-07T07:26:37.771Z,1.90
2022-08-07T07:29:39.048Z,1.90
2022-08-07T07:32:01.447Z,1.92
2022-08-07T07:34:32.017Z,1.98
2022-08-07T07:37:14.472Z,1.93
2022-08-07T07:39:54.288Z,2.40
2022-08-07T07:42:25.828Z,2.00
2022-08-07T07:45:01.520Z,1.67
2022-08-07T07:47:30.508Z,2.03
2022-08-07T07:50:35.166Z,1.53
2022-08-07T07:53:13.640Z,1.88
2022-08-07T07:55:57.797Z,2.13
2022-08-07T07:58:31.050Z,1.42
2022-08-07T08:02:02.856Z,1.98
2022-08-07T08:04:09.262Z,2.03
2022-08-07T08:06:50.870Z,2.08
2022-08-07T08:09:23.626Z,2.10
2022-08-07T08:12:02.907Z,1.52
2022-08-07T08:14:36.458Z,2.40
2022-08-07T08:17:56.059Z,2.07
2022-08-07T08:20:18.733Z,2.03
2022-08-07T08:23:01.581Z,2.22
2022-08-07T08:25:50.460Z,1.88
2022-08-07T08:28:23.690Z,2.20
2022-08-07T08:31:02.024Z,1.90
2022-08-07T08:33:34.310Z,2.17
2022-08-07T08:36:03.267Z,2.10
2022-08-07T08:38:42.048Z,1.95
2022-08-07T08:41:57.351Z,2.10
2022-08-07T08:44:44.909Z,2.13
2022-08-07T08:47:52.187Z,1.70
2022-08-07T08:50:28.190Z,2.10
2022-08-07T08:53:30.341Z,2.00
2022-08-07T08:56:12.122Z,1.73
2022-08-07T08:58:50.578Z,1.88
2022-08-07T09:01:29.817Z,2.20
2022-08-07T09:04:25.943Z,2.10
2022-08-07T09:07:06.328Z,2.00
2022-08-07T09:10:20.536Z,1.97
2022-08-07T09:13:03.670Z,1.95
2022-08-07T09:16:21.620Z,2.53
2022-08-07T09:19:52.095Z,2.33
2022-08-07T09:24:31.729Z,1.92
2022-08-07T09:25:33.106Z,2.40
2022-08-07T09:29:22.332Z,1.98
2022-08-07T09:31:08.524Z,2.20
2022-08-07T09:33:58.133Z,2.20
2022-08-07T09:36:42.791Z,2.00
2022-08-07T09:39:52.530Z,2.23
2022-08-07T09:42:23.084Z,2.10
2022-08-07T09:47:52.194Z,1.95
2022-08-07T09:48:56.033Z,2.10
2022-08-07T09:52:16.092Z,1.92
2022-08-07T09:54:59.423Z,1.93
2022-08-07T09:57:50.672Z,2.10
2022-08-07T10:00:24.390Z,2.13
2022-08-07T10:02:56.609Z,2.10
2022-08-07T10:05:59.101Z,2.15
2022-08-07T10:09:03.667Z,2.07
2022-08-07T10:12:15.417Z,2.50
2022-08-07T10:15:18.618Z,2.00
2022-08-07T10:18:04.010Z,2.17
2022-08-07T10:21:19.777Z,2.00
2022-08-07T10:24:21.632Z,1.97
2022-08-07T10:27:00.340Z,2.10
2022-08-07T10:29:32.684Z,2.35
2022-08-07T10:32:52.956Z,1.90
2022-08-07T10:35:55.527Z,1.92
2022-08-07T10:38:48.845Z,2.00
2022-08-07T10:41:54.636Z,2.10
2022-08-07T10:44:39.328Z,1.88
2022-08-07T10:47:53.176Z,2.05
2022-08-07T10:50:34.143Z,2.10
2022-08-07T10:53:09.321Z,2.03
2022-08-07T10:55:47.341Z,2.17
2022-08-07T10:58:33.023Z,2.00
2022-08-07T11:01:16.871Z,2.30
2022-08-07T11:04:16.495Z,1.85
2022-08-07T11:07:03.236Z,1.90
2022-08-07T11:10:09.374Z,2.08
2022-08-07T11:12:37.962Z,1.92
2022-08-07T11:15:14.686Z,2.03
2022-08-07T11:17:50.190Z,1.98
2022-08-07T11:20:35.590Z,1.53
2022-08-07T11:23:20.831Z,1.70
2022-08-07T11:26:15.118Z,1.65
2022-08-07T11:29:05.721Z,1.80
2022-08-07T11:31:55.752Z,1.77
2022-08-07T11:34:27.054Z,2.10
2022-08-07T11:37:13.279Z,1.60
2022-08-07T11:40:08.707Z,2.00
2022-08-07T11:42:54.060Z,2.13
2022-08-07T11:45:36.140Z,1.55
2022-08-07T11:48:30.072Z,2.07
2022-08-07T11:51:50.875Z,1.60
2022-08-07T11:54:55.545Z,1.50
2022-08-07T11:58:00.792Z,1.80
2022-08-07T12:01:09.373Z,1.70
2022-08-07T12:04:27.707Z,1.50
2022-08-07T12:07:27.797Z,1.90
2022-08-07T12:10:13.770Z,1.50
2022-08-07T12:12:46.511Z,1.77
2022-08-07T12:15:57.945Z,1.70
2022-08-07T12:18:50.736Z,1.40
2022-08-07T12:21:55.948Z,1.60
2022-08-07T12:26:05.323Z,1.58
2022-08-07T12:28:57.918Z,1.52
2022-08-07T12:32:01.701Z,1.70
2022-08-07T12:34:22.714Z,1.60
2022-08-07T12:36:54.612Z,1.80
2022-08-07T12:39:43.888Z,1.65
2022-08-07T12:42:13.433Z,1.60
2022-08-07T12:44:45.177Z,1.80
2022-08-07T12:47:31.043Z,2.03
2022-08-07T12:50:34.247Z,1.95
2022-08-07T12:53:18.917Z,1.52
2022-08-07T12:56:03.225Z,1.85
2022-08-07T12:58:39.361Z,1.95
2022-08-07T13:01:07.711Z,1.80
2022-08-07T13:04:05.351Z,2.05
2022-08-07T13:07:01.170Z,1.98
2022-08-07T13:10:28.730Z,1.90
2022-08-07T13:13:47.507Z,1.73
2022-08-07T13:16:27.175Z,1.70
2022-08-07T13:19:11.387Z,1.48
2022-08-07T13:22:19.398Z,1.50
2022-08-07T13:24:56.519Z,1.80
2022-08-07T13:28:10.706Z,1.90
2022-08-07T13:30:48.901Z,1.60
2022-08-07T13:34:30.293Z,1.73
2022-08-07T13:36:26.145Z,1.70
2022-08-07T13:39:12.890Z,1.75
2022-08-07T13:41:54.892Z,1.83
2022-08-07T13:44:34.252Z,2.00
2022-08-07T13:47:09.570Z,2.10
2022-08-07T13:50:34.378Z,1.60
2022-08-07T13:52:38.181Z,1.70
2022-08-07T13:55:10.968Z,1.63
2022-08-07T13:57:48.741Z,1.80
2022-08-07T14:00:50.344Z,1.50
2022-08-07T14:03:28.935Z,1.77
2022-08-07T14:06:12.341Z,1.83
2022-08-07T14:08:53.486Z,2.10
2022-08-07T14:11:22.874Z,2.27
2022-08-07T14:13:57.912Z,1.70
2022-08-07T14:16:31.304Z,1.75
2022-08-07T14:19:01.349Z,1.90
2022-08-07T14:22:02.853Z,1.80
2022-08-07T14:24:42.699Z,1.80
2022-08-07T14:28:12.452Z,2.00
2022-08-07T14:30:11.789Z,2.08
2022-08-07T14:32:45.699Z,2.20
2022-08-07T14:35:43.089Z,1.98
2022-08-07T14:38:26.565Z,1.70
2022-08-07T14:41:14.658Z,2.08
2022-08-07T14:46:33.262Z,1.75
2022-08-07T14:49:56.018Z,2.00
2022-08-07T14:54:43.490Z,1.70
2022-08-07T14:57:15.013Z,1.38
2022-08-07T15:02:37.407Z,1.60
2022-08-07T15:07:56.515Z,1.50
2022-08-07T15:10:29.616Z,2.08
2022-08-07T15:13:05.711Z,1.80
2022-08-07T15:15:38.968Z,2.00
2022-08-07T15:18:14.310Z,1.83
2022-08-07T15:21:08.235Z,2.20
2022-08-07T15:25:15.128Z,1.80
2022-08-07T15:27:06.383Z,2.00
2022-08-07T15:32:39.699Z,1.50
2022-08-07T15:35:12.488Z,2.33
2022-08-07T15:38:17.365Z,2.15
2022-08-07T15:43:53.314Z,2.03
2022-08-07T15:49:17.525Z,2.08
2022-08-07T15:54:30.928Z,1.98
2022-08-07T15:57:04.979Z,2.33
2022-08-07T15:59:38.980Z,2.50
2022-08-07T16:02:08.503Z,2.25
2022-08-07T16:04:38.417Z,3.08
2022-08-07T16:08:31.234Z,2.10
2022-08-07T16:10:14.267Z,2.22
2022-08-07T16:13:05.350Z,2.77
2022-08-07T16:15:57.965Z,2.60
2022-08-07T16:19:09.527Z,2.80
2022-08-07T16:21:53.484Z,2.60
2022-08-07T16:24:35.620Z,2.20
2022-08-07T16:27:18.549Z,3.00
2022-08-07T16:30:29.316Z,2.60
2022-08-07T16:34:03.218Z,2.42
2022-08-07T16:36:20.129Z,2.55
2022-08-07T16:39:06.152Z,2.40
2022-08-07T16:41:49.598Z,2.83
2022-08-07T16:45:14.013Z,3.00
2022-08-07T16:47:58.790Z,2.70
2022-08-07T16:51:21.749Z,2.78
2022-08-07T16:54:27.798Z,2.95
2022-08-07T16:57:03.183Z,3.37
2022-08-07T16:59:59.234Z,3.10
2022-08-07T17:02:59.777Z,2.75
2022-08-07T17:06:29.245Z,3.10
2022-08-07T17:09:15.846Z,2.63
2022-08-07T17:12:44.154Z,2.73
2022-08-07T17:15:15.663Z,3.20
2022-08-07T17:17:48.351Z,4.03
2022-08-07T17:20:29.992Z,3.10
2022-08-07T17:23:08.730Z,2.97
2022-08-07T17:26:23.963Z,3.00
2022-08-07T17:29:04.672Z,3.15
2022-08-07T17:31:44.187Z,2.90
2022-08-07T17:34:57.175Z,2.83
2022-08-07T17:38:11.363Z,2.80
2022-08-07T17:40:34.370Z,3.10
2022-08-07T17:43:15.095Z,2.55
2022-08-07T17:45:55.311Z,2.70
2022-08-07T17:48:31.866Z,2.50
2022-08-07T17:51:04.120Z,2.72
2022-08-07T17:54:00.574Z,2.90
2022-08-07T17:56:35.405Z,2.28
2022-08-07T17:59:17.026Z,2.65
2022-08-07T18:02:10.893Z,2.30
2022-08-07T18:06:02.336Z,2.15
2022-08-07T18:08:24.261Z,2.50
2022-08-07T18:12:07.186Z,2.00
2022-08-07T18:14:19.826Z,2.38
2022-08-07T18:17:07.358Z,2.10
2022-08-07T18:21:06.884Z,2.28
2022-08-07T18:22:58.749Z,1.97
2022-08-07T18:25:40.343Z,2.47
2022-08-07T18:28:35.706Z,2.20
2022-08-07T18:31:15.175Z,2.20
2022-08-07T18:34:35.908Z,2.40
2022-08-07T18:38:58.894Z,2.50
2022-08-07T18:40:42.305Z,1.95
2022-08-07T18:43:18.552Z,2.58
2022-08-07T18:46:21.969Z,2.45
2022-08-07T18:50:30.206Z,4.03
2022-08-07T18:52:40.885Z,2.10
2022-08-07T18:55:41.632Z,2.70
2022-08-07T18:58:43.406Z,2.50
2022-08-07T19:02:19.934Z,2.50
2022-08-07T19:05:14.904Z,2.53
2022-08-07T19:08:05.183Z,2.80
2022-08-07T19:11:34.716Z,2.70
2022-08-07T19:14:17.344Z,3.70
2022-08-07T19:17:06.515Z,2.63
2022-08-07T19:19:38.725Z,3.10
2022-08-07T19:22:30.878Z,2.78
2022-08-07T19:25:05.449Z,3.00
2022-08-07T19:28:56.468Z,3.13
2022-08-07T19:31:05.749Z,3.17
2022-08-07T19:33:18.857Z,3.15
2022-08-07T19:36:01.548Z,3.15
2022-08-07T19:38:30.577Z,3.17
2022-08-07T19:41:00.606Z,2.53
2022-08-07T19:43:50.075Z,3.00
2022-08-07T19:46:26.717Z,3.60
2022-08-07T19:49:02.652Z,3.75
2022-08-07T19:51:52.251Z,3.15
2022-08-07T19:54:33.412Z,4.63
2022-08-07T19:58:01.573Z,3.50
2022-08-07T20:00:10.121Z,4.13
2022-08-07T20:02:52.164Z,4.13
2022-08-07T20:05:27.847Z,4.05
2022-08-07T20:08:00.871Z,4.83
2022-08-07T20:10:54.947Z,4.60
2022-08-07T20:13:38.472Z,4.82
2022-08-07T20:16:32.177Z,4.95
2022-08-07T20:18:59.361Z,5.35
2022-08-07T20:21:41.702Z,5.13
2022-08-07T20:24:35.840Z,4.70
2022-08-07T20:27:11.738Z,4.60
2022-08-07T20:29:58.302Z,5.00
2022-08-07T20:32:39.632Z,4.60
2022-08-07T20:35:26.575Z,4.30
2022-08-07T20:37:58.508Z,4.85
2022-08-07T20:40:33.054Z,4.15
2022-08-07T20:43:03.570Z,5.15
2022-08-07T20:46:26.476Z,5.38
2022-08-07T20:48:30.762Z,5.33
2022-08-07T20:51:03.310Z,5.55
2022-08-07T20:54:03.983Z,5.40
2022-08-07T20:56:28.853Z,5.05
2022-08-07T20:58:59.751Z,6.95
2022-08-07T21:01:29.822Z,5.20
2022-08-07T21:04:22.215Z,5.50
2022-08-07T21:06:53.716Z,5.88
2022-08-07T21:09:24.401Z,5.60
2022-08-07T21:11:55.708Z,4.97
2022-08-07T21:14:32.047Z,5.33
2022-08-07T21:18:03.822Z,5.35
2022-08-07T21:20:06.143Z,5.18
2022-08-07T21:22:45.173Z,5.63
2022-08-07T21:25:29.695Z,5.55
2022-08-07T21:28:16.786Z,6.13
2022-08-07T21:31:49.845Z,6.50
2022-08-07T21:35:01.366Z,7.22
2022-08-07T21:37:58.308Z,6.63
2022-08-07T21:40:36.115Z,7.35
2022-08-07T21:43:10.981Z,7.70
2022-08-07T21:46:08.842Z,6.55
2022-08-07T21:48:59.636Z,5.88
2022-08-07T21:51:32.361Z,6.30
2022-08-07T21:54:19.554Z,6.20
2022-08-07T21:56:57.908Z,6.00
2022-08-07T22:00:04.331Z,6.95
2022-08-07T22:03:10.093Z,6.65
2022-08-07T22:05:58.112Z,6.15
2022-08-07T22:08:33.946Z,7.93
2022-08-07T22:11:04.556Z,7.90
2022-08-07T22:13:52.922Z,7.15
2022-08-07T22:16:46.659Z,8.57
2022-08-07T22:19:29.782Z,8.60
2022-08-07T22:22:27.905Z,6.90
2022-08-07T22:25:12.302Z,8.03
2022-08-07T22:28:07.610Z,8.82
2022-08-07T22:30:51.926Z,8.05
2022-08-07T22:33:53.280Z,8.75
2022-08-07T22:36:23.728Z,8.07
2022-08-07T22:39:07.455Z,7.27
2022-08-07T22:42:04.063Z,7.50
2022-08-07T22:44:34.479Z,7.28
2022-08-07T22:47:23.227Z,7.93
2022-08-07T22:50:09.112Z,7.85
2022-08-07T22:52:46.453Z,7.47
2022-08-07T22:55:31.365Z,7.25
2022-08-07T22:58:45.337Z,8.27
2022-08-07T23:01:30.550Z,7.88
2022-08-07T23:04:57.985Z,7.88
2022-08-07T23:07:49.320Z,9.00
2022-08-07T23:10:36.433Z,8.38
2022-08-07T23:13:21.534Z,7.80
2022-08-07T23:16:46.704Z,9.07
2022-08-07T23:19:47.894Z,8.50
2022-08-07T23:22:34.723Z,8.87
2022-08-07T23:25:31.999Z,10.05
2022-08-07T23:28:22.107Z,10.63
2022-08-07T23:31:13.826Z,10.20
2022-08-07T23:34:36.359Z,9.27
2022-08-07T23:38:00.426Z,10.57
2022-08-07T23:40:39.827Z,12.23
2022-08-07T23:43:22.665Z,13.43
2022-08-07T23:46:10.491Z,14.95
2022-08-07T23:48:56.223Z,16.48
2022-08-07T23:53:00.749Z,16.63
2022-08-07T23:54:46.367Z,16.15
2022-08-07T23:57:34.875Z,15.52
